sensor_id;sensor_type;location;lat;lon;timestamp;temperature;humidity
6110;DHT22;3085;49.444;11.054;2022-09-14T00:00:43;19.10;99.90
6110;DHT22;3085;49.444;11.054;2022-09-14T00:03:11;19.20;99.90
6110;DHT22;3085;49.444;11.054;2022-09-14T00:05:37;19.20;99.90
6110;DHT22;3085;49.444;11.054;2022-09-14T00:08:04;19.10;99.90
6110;DHT22;3085;49.444;11.054;2022-09-14T00:10:31;19.20;99.90
6110;DHT22;3085;49.444;11.054;2022-09-14T00:12:58;19.10;99.90
6110;DHT22;3085;49.444;11.054;2022-09-14T00:15:25;19.10;99.90
6110;DHT22;3085;49.444;11.054;2022-09-14T00:17:52;19.10;99.90
6110;DHT22;3085;49.444;11.054;2022-09-14T00:20:20;19.10;99.90
6110;DHT22;3085;49.444;11.054;2022-09-14T00:22:47;19.10;99.90
6110;DHT22;3085;49.444;11.054;2022-09-14T00:25:14;19.10;99.90
6110;DHT22;3085;49.444;11.054;2022-09-14T00:27:40;19.00;99.90
6110;DHT22;3085;49.444;11.054;2022-09-14T00:30:08;19.00;99.90
6110;DHT22;3085;49.444;11.054;2022-09-14T00:32:35;19.10;99.90
6110;DHT22;3085;49.444;11.054;2022-09-14T00:35:02;19.00;99.90
6110;DHT22;3085;49.444;11.054;2022-09-14T00:37:30;19.00;99.90
6110;DHT22;3085;49.444;11.054;2022-09-14T00:39:57;19.00;99.90
6110;DHT22;3085;49.444;11.054;2022-09-14T00:42:24;19.00;99.90
6110;DHT22;3085;49.444;11.054;2022-09-14T00:45:07;19.00;99.90
6110;DHT22;3085;49.444;11.054;2022-09-14T00:47:37;18.90;99.90
6110;DHT22;3085;49.444;11.054;2022-09-14T00:50:05;18.90;99.90
6110;DHT22;3085;49.444;11.054;2022-09-14T00:52:36;19.00;99.90
6110;DHT22;3085;49.444;11.054;2022-09-14T00:55:06;19.00;99.90
6110;DHT22;3085;49.444;11.054;2022-09-14T00:57:36;19.00;99.90
6110;DHT22;3085;49.444;11.054;2022-09-14T01:00:04;19.00;99.90
6110;DHT22;3085;49.444;11.054;2022-09-14T01:02:32;18.90;99.90
6110;DHT22;3085;49.444;11.054;2022-09-14T01:04:59;19.00;99.90
6110;DHT22;3085;49.444;11.054;2022-09-14T01:07:38;18.90;99.90
6110;DHT22;3085;49.444;11.054;2022-09-14T01:10:17;18.90;99.90
6110;DHT22;3085;49.444;11.054;2022-09-14T01:12:56;18.90;99.90
6110;DHT22;3085;49.444;11.054;2022-09-14T01:15:44;18.80;99.90
6110;DHT22;3085;49.444;11.054;2022-09-14T01:18:21;18.80;99.90
6110;DHT22;3085;49.444;11.054;2022-09-14T01:20:55;18.70;99.90
6110;DHT22;3085;49.444;11.054;2022-09-14T01:23:29;18.70;99.90
6110;DHT22;3085;49.444;11.054;2022-09-14T01:26:12;18.70;99.90
6110;DHT22;3085;49.444;11.054;2022-09-14T01:28:51;18.70;99.90
6110;DHT22;3085;49.444;11.054;2022-09-14T01:31:26;18.60;99.90
6110;DHT22;3085;49.444;11.054;2022-09-14T01:33:59;18.70;99.90
6110;DHT22;3085;49.444;11.054;2022-09-14T01:36:31;18.70;99.90
6110;DHT22;3085;49.444;11.054;2022-09-14T01:39:00;18.80;99.90
6110;DHT22;3085;49.444;11.054;2022-09-14T01:41:28;18.70;99.90
6110;DHT22;3085;49.444;11.054;2022-09-14T01:44:01;18.70;99.90
6110;DHT22;3085;49.444;11.054;2022-09-14T01:46:35;18.70;99.90
6110;DHT22;3085;49.444;11.054;2022-09-14T01:49:08;18.80;99.90
6110;DHT22;3085;49.444;11.054;2022-09-14T01:51:39;18.70;99.90
6110;DHT22;3085;49.444;11.054;2022-09-14T01:54:12;18.80;99.90
6110;DHT22;3085;49.444;11.054;2022-09-14T01:56:47;18.60;99.90
6110;DHT22;3085;49.444;11.054;2022-09-14T01:59:19;18.70;99.90
6110;DHT22;3085;49.444;11.054;2022-09-14T02:01:50;18.60;99.90
6110;DHT22;3085;49.444;11.054;2022-09-14T02:04:22;18.60;99.90
6110;DHT22;3085;49.444;11.054;2022-09-14T02:06:51;18.70;99.90
6110;DHT22;3085;49.444;11.054;2022-09-14T02:09:21;18.70;99.90
6110;DHT22;3085;49.444;11.054;2022-09-14T02:11:51;18.70;99.90
6110;DHT22;3085;49.444;11.054;2022-09-14T02:14:20;18.60;99.90
6110;DHT22;3085;49.444;11.054;2022-09-14T02:16:47;18.60;99.90
6110;DHT22;3085;49.444;11.054;2022-09-14T02:19:14;18.60;99.90
6110;DHT22;3085;49.444;11.054;2022-09-14T02:21:40;18.70;99.90
6110;DHT22;3085;49.444;11.054;2022-09-14T02:24:09;18.70;99.90
6110;DHT22;3085;49.444;11.054;2022-09-14T02:26:37;18.70;99.90
6110;DHT22;3085;49.444;11.054;2022-09-14T02:29:05;18.70;99.90
6110;DHT22;3085;49.444;11.054;2022-09-14T02:31:45;18.70;99.90
6110;DHT22;3085;49.444;11.054;2022-09-14T02:34:23;18.70;99.90
6110;DHT22;3085;49.444;11.054;2022-09-14T02:37:00;18.60;99.90
6110;DHT22;3085;49.444;11.054;2022-09-14T02:39:36;18.60;99.90
6110;DHT22;3085;49.444;11.054;2022-09-14T02:42:13;18.60;99.90
6110;DHT22;3085;49.444;11.054;2022-09-14T02:44:48;18.60;99.90
6110;DHT22;3085;49.444;11.054;2022-09-14T02:47:25;18.50;99.90
6110;DHT22;3085;49.444;11.054;2022-09-14T02:49:59;18.50;99.90
6110;DHT22;3085;49.444;11.054;2022-09-14T02:52:32;18.60;99.90
6110;DHT22;3085;49.444;11.054;2022-09-14T02:55:03;18.60;99.90
6110;DHT22;3085;49.444;11.054;2022-09-14T02:57:31;18.50;99.90
6110;DHT22;3085;49.444;11.054;2022-09-14T02:59:58;18.50;99.90
6110;DHT22;3085;49.444;11.054;2022-09-14T03:02:26;18.50;99.90
6110;DHT22;3085;49.444;11.054;2022-09-14T03:04:53;18.40;99.90
6110;DHT22;3085;49.444;11.054;2022-09-14T03:07:21;18.40;99.90
6110;DHT22;3085;49.444;11.054;2022-09-14T03:09:47;18.50;99.90
6110;DHT22;3085;49.444;11.054;2022-09-14T03:12:14;18.50;99.90
6110;DHT22;3085;49.444;11.054;2022-09-14T03:14:41;18.50;99.90
6110;DHT22;3085;49.444;11.054;2022-09-14T03:17:08;18.50;99.90
6110;DHT22;3085;49.444;11.054;2022-09-14T03:19:36;18.50;99.90
6110;DHT22;3085;49.444;11.054;2022-09-14T03:22:03;18.30;99.90
6110;DHT22;3085;49.444;11.054;2022-09-14T03:24:29;18.10;99.90
6110;DHT22;3085;49.444;11.054;2022-09-14T03:26:57;18.10;99.90
6110;DHT22;3085;49.444;11.054;2022-09-14T03:29:24;18.10;99.90
6110;DHT22;3085;49.444;11.054;2022-09-14T03:31:50;18.10;99.90
6110;DHT22;3085;49.444;11.054;2022-09-14T03:34:17;18.10;99.90
6110;DHT22;3085;49.444;11.054;2022-09-14T03:36:45;18.20;99.90
6110;DHT22;3085;49.444;11.054;2022-09-14T03:39:12;18.20;99.90
6110;DHT22;3085;49.444;11.054;2022-09-14T03:41:39;18.30;99.90
6110;DHT22;3085;49.444;11.054;2022-09-14T03:44:06;18.30;99.90
6110;DHT22;3085;49.444;11.054;2022-09-14T03:46:33;18.40;99.90
6110;DHT22;3085;49.444;11.054;2022-09-14T03:48:59;18.40;99.90
6110;DHT22;3085;49.444;11.054;2022-09-14T03:51:26;18.40;99.90
6110;DHT22;3085;49.444;11.054;2022-09-14T03:53:54;18.40;99.90
6110;DHT22;3085;49.444;11.054;2022-09-14T03:56:22;18.40;99.90
6110;DHT22;3085;49.444;11.054;2022-09-14T03:58:49;18.40;99.90
6110;DHT22;3085;49.444;11.054;2022-09-14T04:01:17;18.40;99.90
6110;DHT22;3085;49.444;11.054;2022-09-14T04:03:45;18.40;99.90
6110;DHT22;3085;49.444;11.054;2022-09-14T04:06:12;18.40;99.90
6110;DHT22;3085;49.444;11.054;2022-09-14T04:08:41;18.40;99.90
6110;DHT22;3085;49.444;11.054;2022-09-14T04:11:12;18.40;99.90
6110;DHT22;3085;49.444;11.054;2022-09-14T04:13:40;17.90;99.90
6110;DHT22;3085;49.444;11.054;2022-09-14T04:16:07;18.30;99.90
6110;DHT22;3085;49.444;11.054;2022-09-14T04:18:33;18.20;99.90
6110;DHT22;3085;49.444;11.054;2022-09-14T04:21:02;18.10;99.90
6110;DHT22;3085;49.444;11.054;2022-09-14T04:23:30;18.10;99.90
6110;DHT22;3085;49.444;11.054;2022-09-14T04:25:56;18.10;99.90
6110;DHT22;3085;49.444;11.054;2022-09-14T04:28:25;18.10;99.90
6110;DHT22;3085;49.444;11.054;2022-09-14T04:30:56;18.00;99.90
6110;DHT22;3085;49.444;11.054;2022-09-14T04:33:24;18.10;99.90
6110;DHT22;3085;49.444;11.054;2022-09-14T04:35:59;18.10;99.90
6110;DHT22;3085;49.444;11.054;2022-09-14T04:38:27;18.00;99.90
6110;DHT22;3085;49.444;11.054;2022-09-14T04:40:54;17.90;99.90
6110;DHT22;3085;49.444;11.054;2022-09-14T04:43:21;17.90;99.90
6110;DHT22;3085;49.444;11.054;2022-09-14T04:45:50;18.00;99.90
6110;DHT22;3085;49.444;11.054;2022-09-14T04:48:17;18.00;99.90
6110;DHT22;3085;49.444;11.054;2022-09-14T04:50:44;18.00;99.90
6110;DHT22;3085;49.444;11.054;2022-09-14T04:53:11;18.00;99.90
6110;DHT22;3085;49.444;11.054;2022-09-14T04:55:38;17.90;99.90
6110;DHT22;3085;49.444;11.054;2022-09-14T04:58:05;17.90;99.90
6110;DHT22;3085;49.444;11.054;2022-09-14T05:00:33;17.80;99.90
6110;DHT22;3085;49.444;11.054;2022-09-14T05:03:03;17.70;99.90
6110;DHT22;3085;49.444;11.054;2022-09-14T05:05:30;17.60;99.90
6110;DHT22;3085;49.444;11.054;2022-09-14T05:08:00;17.60;99.90
6110;DHT22;3085;49.444;11.054;2022-09-14T05:10:26;17.70;99.90
6110;DHT22;3085;49.444;11.054;2022-09-14T05:12:53;17.60;99.90
6110;DHT22;3085;49.444;11.054;2022-09-14T05:15:20;17.70;99.90
6110;DHT22;3085;49.444;11.054;2022-09-14T05:17:47;17.80;99.90
6110;DHT22;3085;49.444;11.054;2022-09-14T05:20:15;17.80;99.90
6110;DHT22;3085;49.444;11.054;2022-09-14T05:22:43;17.70;99.90
6110;DHT22;3085;49.444;11.054;2022-09-14T05:25:09;17.70;99.90
6110;DHT22;3085;49.444;11.054;2022-09-14T05:27:36;17.70;99.90
6110;DHT22;3085;49.444;11.054;2022-09-14T05:30:04;17.70;99.90
6110;DHT22;3085;49.444;11.054;2022-09-14T05:32:30;17.60;99.90
6110;DHT22;3085;49.444;11.054;2022-09-14T05:34:57;18.20;99.90
6110;DHT22;3085;49.444;11.054;2022-09-14T05:37:26;17.70;99.90
6110;DHT22;3085;49.444;11.054;2022-09-14T05:39:53;17.70;99.90
6110;DHT22;3085;49.444;11.054;2022-09-14T05:42:19;17.60;99.90
6110;DHT22;3085;49.444;11.054;2022-09-14T05:44:46;17.70;99.90
6110;DHT22;3085;49.444;11.054;2022-09-14T05:47:13;17.70;99.90
6110;DHT22;3085;49.444;11.054;2022-09-14T05:49:40;17.70;99.90
6110;DHT22;3085;49.444;11.054;2022-09-14T05:52:07;17.80;99.90
6110;DHT22;3085;49.444;11.054;2022-09-14T05:54:35;17.80;99.90
6110;DHT22;3085;49.444;11.054;2022-09-14T05:57:01;17.80;99.90
6110;DHT22;3085;49.444;11.054;2022-09-14T05:59:28;17.80;99.90
6110;DHT22;3085;49.444;11.054;2022-09-14T06:01:56;17.80;99.90
6110;DHT22;3085;49.444;11.054;2022-09-14T06:04:23;17.80;99.90
6110;DHT22;3085;49.444;11.054;2022-09-14T06:06:50;17.80;99.90
6110;DHT22;3085;49.444;11.054;2022-09-14T06:09:17;17.80;99.90
6110;DHT22;3085;49.444;11.054;2022-09-14T06:11:45;17.80;99.90
6110;DHT22;3085;49.444;11.054;2022-09-14T06:14:12;17.80;99.90
6110;DHT22;3085;49.444;11.054;2022-09-14T06:16:44;17.80;99.90
6110;DHT22;3085;49.444;11.054;2022-09-14T06:19:11;17.70;99.90
6110;DHT22;3085;49.444;11.054;2022-09-14T06:21:40;17.60;99.90
6110;DHT22;3085;49.444;11.054;2022-09-14T06:24:09;17.60;99.90
6110;DHT22;3085;49.444;11.054;2022-09-14T06:26:37;17.60;99.90
6110;DHT22;3085;49.444;11.054;2022-09-14T06:29:05;17.50;99.90
6110;DHT22;3085;49.444;11.054;2022-09-14T06:31:32;17.50;99.90
6110;DHT22;3085;49.444;11.054;2022-09-14T06:33:59;17.50;99.90
6110;DHT22;3085;49.444;11.054;2022-09-14T06:36:27;17.50;99.90
6110;DHT22;3085;49.444;11.054;2022-09-14T06:38:55;17.50;99.90
6110;DHT22;3085;49.444;11.054;2022-09-14T06:41:23;17.60;99.90
6110;DHT22;3085;49.444;11.054;2022-09-14T06:43:54;17.40;99.90
6110;DHT22;3085;49.444;11.054;2022-09-14T06:46:24;17.50;99.90
6110;DHT22;3085;49.444;11.054;2022-09-14T06:48:54;17.40;99.90
6110;DHT22;3085;49.444;11.054;2022-09-14T06:51:23;17.40;99.90
6110;DHT22;3085;49.444;11.054;2022-09-14T06:53:50;17.40;99.90
6110;DHT22;3085;49.444;11.054;2022-09-14T06:56:18;17.40;99.90
6110;DHT22;3085;49.444;11.054;2022-09-14T06:58:45;17.40;99.90
6110;DHT22;3085;49.444;11.054;2022-09-14T07:01:15;17.30;99.90
6110;DHT22;3085;49.444;11.054;2022-09-14T07:03:44;17.30;99.90
6110;DHT22;3085;49.444;11.054;2022-09-14T07:06:12;17.40;99.90
6110;DHT22;3085;49.444;11.054;2022-09-14T07:08:41;17.30;99.90
6110;DHT22;3085;49.444;11.054;2022-09-14T07:11:09;17.30;99.90
6110;DHT22;3085;49.444;11.054;2022-09-14T07:13:36;17.30;99.90
6110;DHT22;3085;49.444;11.054;2022-09-14T07:16:04;17.30;99.90
6110;DHT22;3085;49.444;11.054;2022-09-14T07:18:31;17.30;99.90
6110;DHT22;3085;49.444;11.054;2022-09-14T07:21:04;17.30;99.90
6110;DHT22;3085;49.444;11.054;2022-09-14T07:23:31;17.30;99.90
6110;DHT22;3085;49.444;11.054;2022-09-14T07:26:00;17.30;99.90
6110;DHT22;3085;49.444;11.054;2022-09-14T07:28:27;17.40;99.90
6110;DHT22;3085;49.444;11.054;2022-09-14T07:30:54;17.40;99.90
6110;DHT22;3085;49.444;11.054;2022-09-14T07:33:21;17.30;99.90
6110;DHT22;3085;49.444;11.054;2022-09-14T07:35:48;17.40;99.90
6110;DHT22;3085;49.444;11.054;2022-09-14T07:38:16;17.50;99.90
6110;DHT22;3085;49.444;11.054;2022-09-14T07:40:43;17.50;99.90
6110;DHT22;3085;49.444;11.054;2022-09-14T07:43:11;17.60;99.90
6110;DHT22;3085;49.444;11.054;2022-09-14T07:45:38;17.60;99.90
6110;DHT22;3085;49.444;11.054;2022-09-14T07:48:05;17.50;99.90
6110;DHT22;3085;49.444;11.054;2022-09-14T07:50:32;17.50;99.90
6110;DHT22;3085;49.444;11.054;2022-09-14T07:52:58;17.60;99.90
6110;DHT22;3085;49.444;11.054;2022-09-14T07:55:26;17.70;99.90
6110;DHT22;3085;49.444;11.054;2022-09-14T07:57:54;17.60;99.90
6110;DHT22;3085;49.444;11.054;2022-09-14T08:00:21;17.70;99.90
6110;DHT22;3085;49.444;11.054;2022-09-14T08:02:51;17.70;99.90
6110;DHT22;3085;49.444;11.054;2022-09-14T08:05:18;17.70;99.90
6110;DHT22;3085;49.444;11.054;2022-09-14T08:07:45;17.60;99.90
6110;DHT22;3085;49.444;11.054;2022-09-14T08:10:12;17.60;99.90
6110;DHT22;3085;49.444;11.054;2022-09-14T08:12:40;17.70;99.90
6110;DHT22;3085;49.444;11.054;2022-09-14T08:15:08;17.70;99.90
6110;DHT22;3085;49.444;11.054;2022-09-14T08:17:35;17.60;99.90
6110;DHT22;3085;49.444;11.054;2022-09-14T08:20:02;17.60;99.90
6110;DHT22;3085;49.444;11.054;2022-09-14T08:22:29;17.60;99.90
6110;DHT22;3085;49.444;11.054;2022-09-14T08:24:56;17.60;99.90
6110;DHT22;3085;49.444;11.054;2022-09-14T08:27:23;17.70;99.90
6110;DHT22;3085;49.444;11.054;2022-09-14T08:29:51;17.70;99.90
6110;DHT22;3085;49.444;11.054;2022-09-14T08:32:18;17.80;99.90
6110;DHT22;3085;49.444;11.054;2022-09-14T08:34:45;17.90;99.90
6110;DHT22;3085;49.444;11.054;2022-09-14T08:37:12;17.90;99.90
6110;DHT22;3085;49.444;11.054;2022-09-14T08:39:40;17.90;99.90
6110;DHT22;3085;49.444;11.054;2022-09-14T08:42:13;17.90;99.90
6110;DHT22;3085;49.444;11.054;2022-09-14T08:44:44;18.00;99.90
6110;DHT22;3085;49.444;11.054;2022-09-14T08:47:16;18.00;99.90
6110;DHT22;3085;49.444;11.054;2022-09-14T08:49:50;18.10;99.90
6110;DHT22;3085;49.444;11.054;2022-09-14T08:52:25;18.20;99.90
6110;DHT22;3085;49.444;11.054;2022-09-14T08:54:55;18.30;99.90
6110;DHT22;3085;49.444;11.054;2022-09-14T08:57:27;18.30;99.90
6110;DHT22;3085;49.444;11.054;2022-09-14T09:00:05;18.30;99.90
6110;DHT22;3085;49.444;11.054;2022-09-14T09:03:02;18.40;99.90
6110;DHT22;3085;49.444;11.054;2022-09-14T09:05:39;18.40;99.90
6110;DHT22;3085;49.444;11.054;2022-09-14T09:08:17;18.40;99.90
6110;DHT22;3085;49.444;11.054;2022-09-14T09:10:46;18.40;99.90
6110;DHT22;3085;49.444;11.054;2022-09-14T09:13:16;18.50;99.90
6110;DHT22;3085;49.444;11.054;2022-09-14T09:15:48;18.50;99.90
6110;DHT22;3085;49.444;11.054;2022-09-14T09:18:20;18.50;99.90
6110;DHT22;3085;49.444;11.054;2022-09-14T09:20:50;18.60;99.90
6110;DHT22;3085;49.444;11.054;2022-09-14T09:23:19;18.60;99.90
6110;DHT22;3085;49.444;11.054;2022-09-14T09:25:55;18.70;99.90
6110;DHT22;3085;49.444;11.054;2022-09-14T09:28:26;18.70;99.90
6110;DHT22;3085;49.444;11.054;2022-09-14T09:30:54;18.70;99.90
6110;DHT22;3085;49.444;11.054;2022-09-14T09:33:25;18.70;99.90
6110;DHT22;3085;49.444;11.054;2022-09-14T09:35:53;18.70;99.90
6110;DHT22;3085;49.444;11.054;2022-09-14T09:38:22;18.70;99.90
6110;DHT22;3085;49.444;11.054;2022-09-14T09:40:52;18.80;99.90
6110;DHT22;3085;49.444;11.054;2022-09-14T09:43:20;18.80;99.90
6110;DHT22;3085;49.444;11.054;2022-09-14T09:45:50;18.70;99.90
6110;DHT22;3085;49.444;11.054;2022-09-14T09:48:22;18.80;99.90
6110;DHT22;3085;49.444;11.054;2022-09-14T09:50:59;18.80;99.90
6110;DHT22;3085;49.444;11.054;2022-09-14T09:53:27;18.80;99.90
6110;DHT22;3085;49.444;11.054;2022-09-14T09:55:55;18.80;99.90
6110;DHT22;3085;49.444;11.054;2022-09-14T09:58:29;18.80;99.90
6110;DHT22;3085;49.444;11.054;2022-09-14T10:00:58;18.70;99.90
6110;DHT22;3085;49.444;11.054;2022-09-14T10:03:29;18.70;99.90
6110;DHT22;3085;49.444;11.054;2022-09-14T10:06:02;18.80;99.90
6110;DHT22;3085;49.444;11.054;2022-09-14T10:08:30;18.80;99.90
6110;DHT22;3085;49.444;11.054;2022-09-14T10:11:01;18.80;99.90
6110;DHT22;3085;49.444;11.054;2022-09-14T10:13:31;18.90;99.90
6110;DHT22;3085;49.444;11.054;2022-09-14T10:16:12;18.90;99.90
6110;DHT22;3085;49.444;11.054;2022-09-14T10:18:44;18.90;99.90
6110;DHT22;3085;49.444;11.054;2022-09-14T10:21:14;19.00;99.90
6110;DHT22;3085;49.444;11.054;2022-09-14T10:23:42;19.10;99.90
6110;DHT22;3085;49.444;11.054;2022-09-14T10:26:23;19.10;99.90
6110;DHT22;3085;49.444;11.054;2022-09-14T10:28:51;19.30;99.90
6110;DHT22;3085;49.444;11.054;2022-09-14T10:31:25;19.10;99.90
6110;DHT22;3085;49.444;11.054;2022-09-14T10:33:56;19.40;99.90
6110;DHT22;3085;49.444;11.054;2022-09-14T10:36:27;19.40;99.90
6110;DHT22;3085;49.444;11.054;2022-09-14T10:38:57;19.50;99.90
6110;DHT22;3085;49.444;11.054;2022-09-14T10:41:33;19.50;99.90
6110;DHT22;3085;49.444;11.054;2022-09-14T10:44:40;19.60;99.90
6110;DHT22;3085;49.444;11.054;2022-09-14T10:47:23;19.90;99.90
6110;DHT22;3085;49.444;11.054;2022-09-14T10:50:02;19.90;99.90
6110;DHT22;3085;49.444;11.054;2022-09-14T10:52:43;19.80;99.90
6110;DHT22;3085;49.444;11.054;2022-09-14T10:55:27;19.80;99.90
6110;DHT22;3085;49.444;11.054;2022-09-14T10:58:10;19.90;99.90
6110;DHT22;3085;49.444;11.054;2022-09-14T11:00:47;19.90;99.90
6110;DHT22;3085;49.444;11.054;2022-09-14T11:03:32;20.00;99.90
6110;DHT22;3085;49.444;11.054;2022-09-14T11:06:14;20.00;99.90
6110;DHT22;3085;49.444;11.054;2022-09-14T11:08:46;20.00;99.90
6110;DHT22;3085;49.444;11.054;2022-09-14T11:11:28;20.00;99.90
6110;DHT22;3085;49.444;11.054;2022-09-14T11:14:19;20.00;99.90
6110;DHT22;3085;49.444;11.054;2022-09-14T11:17:15;19.90;99.90
6110;DHT22;3085;49.444;11.054;2022-09-14T11:19:50;20.00;99.90
6110;DHT22;3085;49.444;11.054;2022-09-14T11:22:29;20.00;99.90
6110;DHT22;3085;49.444;11.054;2022-09-14T11:25:23;20.00;99.90
6110;DHT22;3085;49.444;11.054;2022-09-14T11:27:55;20.20;99.90
6110;DHT22;3085;49.444;11.054;2022-09-14T11:30:27;20.10;99.90
6110;DHT22;3085;49.444;11.054;2022-09-14T11:32:58;20.20;99.90
6110;DHT22;3085;49.444;11.054;2022-09-14T11:35:30;20.30;99.90
6110;DHT22;3085;49.444;11.054;2022-09-14T11:38:02;20.30;99.90
6110;DHT22;3085;49.444;11.054;2022-09-14T11:40:35;20.40;99.90
6110;DHT22;3085;49.444;11.054;2022-09-14T11:43:05;20.50;99.90
6110;DHT22;3085;49.444;11.054;2022-09-14T11:45:39;20.50;99.90
6110;DHT22;3085;49.444;11.054;2022-09-14T11:48:18;20.50;99.90
6110;DHT22;3085;49.444;11.054;2022-09-14T11:50:46;20.50;99.90
6110;DHT22;3085;49.444;11.054;2022-09-14T11:53:16;20.50;99.90
6110;DHT22;3085;49.444;11.054;2022-09-14T11:55:46;20.60;99.90
6110;DHT22;3085;49.444;11.054;2022-09-14T11:58:17;20.70;99.90
6110;DHT22;3085;49.444;11.054;2022-09-14T12:01:02;20.70;99.90
6110;DHT22;3085;49.444;11.054;2022-09-14T12:03:52;20.70;99.90
6110;DHT22;3085;49.444;11.054;2022-09-14T12:06:51;20.70;99.90
6110;DHT22;3085;49.444;11.054;2022-09-14T12:09:46;20.80;99.90
6110;DHT22;3085;49.444;11.054;2022-09-14T12:12:33;20.80;99.90
6110;DHT22;3085;49.444;11.054;2022-09-14T12:15:01;20.90;99.90
6110;DHT22;3085;49.444;11.054;2022-09-14T12:17:31;20.90;99.90
6110;DHT22;3085;49.444;11.054;2022-09-14T12:20:24;20.90;99.90
6110;DHT22;3085;49.444;11.054;2022-09-14T12:23:14;20.90;99.90
6110;DHT22;3085;49.444;11.054;2022-09-14T12:26:07;20.90;99.90
6110;DHT22;3085;49.444;11.054;2022-09-14T12:28:41;21.00;99.90
6110;DHT22;3085;49.444;11.054;2022-09-14T12:31:30;21.00;99.90
6110;DHT22;3085;49.444;11.054;2022-09-14T12:34:15;21.30;99.90
6110;DHT22;3085;49.444;11.054;2022-09-14T12:46:37;21.50;99.90
6110;DHT22;3085;49.444;11.054;2022-09-14T12:49:24;21.60;99.90
6110;DHT22;3085;49.444;11.054;2022-09-14T12:51:51;21.60;99.90
6110;DHT22;3085;49.444;11.054;2022-09-14T12:54:23;21.70;99.90
6110;DHT22;3085;49.444;11.054;2022-09-14T12:57:03;21.80;99.90
6110;DHT22;3085;49.444;11.054;2022-09-14T12:59:40;21.80;99.90
6110;DHT22;3085;49.444;11.054;2022-09-14T13:05:13;21.80;99.90
6110;DHT22;3085;49.444;11.054;2022-09-14T13:07:40;21.70;99.90
6110;DHT22;3085;49.444;11.054;2022-09-14T13:10:17;21.90;99.90
6110;DHT22;3085;49.444;11.054;2022-09-14T13:12:47;21.90;99.90
6110;DHT22;3085;49.444;11.054;2022-09-14T13:15:17;21.90;99.90
6110;DHT22;3085;49.444;11.054;2022-09-14T13:17:59;21.80;99.90
6110;DHT22;3085;49.444;11.054;2022-09-14T13:20:27;21.80;99.90
6110;DHT22;3085;49.444;11.054;2022-09-14T13:23:01;21.90;99.90
6110;DHT22;3085;49.444;11.054;2022-09-14T13:25:31;21.90;99.90
6110;DHT22;3085;49.444;11.054;2022-09-14T13:28:00;21.90;99.90
6110;DHT22;3085;49.444;11.054;2022-09-14T13:30:28;21.90;99.90
6110;DHT22;3085;49.444;11.054;2022-09-14T13:32:58;21.90;99.90
6110;DHT22;3085;49.444;11.054;2022-09-14T13:35:31;21.90;99.90
6110;DHT22;3085;49.444;11.054;2022-09-14T13:38:04;21.90;99.90
6110;DHT22;3085;49.444;11.054;2022-09-14T13:40:41;21.90;99.90
6110;DHT22;3085;49.444;11.054;2022-09-14T13:43:11;22.00;99.90
6110;DHT22;3085;49.444;11.054;2022-09-14T13:45:38;21.90;99.90
6110;DHT22;3085;49.444;11.054;2022-09-14T13:48:07;21.90;99.90
6110;DHT22;3085;49.444;11.054;2022-09-14T13:50:34;21.90;99.90
6110;DHT22;3085;49.444;11.054;2022-09-14T13:53:01;21.90;99.90
6110;DHT22;3085;49.444;11.054;2022-09-14T13:55:40;21.90;99.90
6110;DHT22;3085;49.444;11.054;2022-09-14T13:58:20;21.90;99.90
6110;DHT22;3085;49.444;11.054;2022-09-14T14:00:51;21.80;99.90
6110;DHT22;3085;49.444;11.054;2022-09-14T14:03:30;21.80;99.90
6110;DHT22;3085;49.444;11.054;2022-09-14T14:05:59;21.80;99.90
6110;DHT22;3085;49.444;11.054;2022-09-14T14:08:33;21.90;99.90
6110;DHT22;3085;49.444;11.054;2022-09-14T14:11:02;21.80;99.90
6110;DHT22;3085;49.444;11.054;2022-09-14T14:13:31;21.80;99.90
6110;DHT22;3085;49.444;11.054;2022-09-14T14:16:16;21.80;99.90
6110;DHT22;3085;49.444;11.054;2022-09-14T14:18:51;21.80;99.90
6110;DHT22;3085;49.444;11.054;2022-09-14T14:21:30;21.70;99.90
6110;DHT22;3085;49.444;11.054;2022-09-14T14:24:23;21.70;99.90
6110;DHT22;3085;49.444;11.054;2022-09-14T14:26:54;21.50;99.90
6110;DHT22;3085;49.444;11.054;2022-09-14T14:29:21;21.50;99.90
6110;DHT22;3085;49.444;11.054;2022-09-14T14:31:48;21.40;99.90
6110;DHT22;3085;49.444;11.054;2022-09-14T14:34:21;21.40;99.90
6110;DHT22;3085;49.444;11.054;2022-09-14T14:36:49;21.30;99.90
6110;DHT22;3085;49.444;11.054;2022-09-14T14:39:17;21.40;99.90
6110;DHT22;3085;49.444;11.054;2022-09-14T14:41:45;21.30;99.90
6110;DHT22;3085;49.444;11.054;2022-09-14T14:44:15;21.20;99.90
6110;DHT22;3085;49.444;11.054;2022-09-14T14:46:43;21.10;99.90
6110;DHT22;3085;49.444;11.054;2022-09-14T14:49:11;20.60;99.90
6110;DHT22;3085;49.444;11.054;2022-09-14T14:51:39;20.40;99.90
6110;DHT22;3085;49.444;11.054;2022-09-14T14:54:07;20.40;99.90
6110;DHT22;3085;49.444;11.054;2022-09-14T14:56:34;20.30;99.90
6110;DHT22;3085;49.444;11.054;2022-09-14T14:59:01;20.10;99.90
6110;DHT22;3085;49.444;11.054;2022-09-14T15:01:28;20.00;99.90
6110;DHT22;3085;49.444;11.054;2022-09-14T15:03:56;20.00;99.90
6110;DHT22;3085;49.444;11.054;2022-09-14T15:06:26;20.00;99.90
6110;DHT22;3085;49.444;11.054;2022-09-14T15:08:55;20.10;99.90
6110;DHT22;3085;49.444;11.054;2022-09-14T15:11:22;20.10;99.90
6110;DHT22;3085;49.444;11.054;2022-09-14T15:13:49;20.10;99.90
6110;DHT22;3085;49.444;11.054;2022-09-14T15:16:16;20.10;99.90
6110;DHT22;3085;49.444;11.054;2022-09-14T15:18:43;20.00;99.90
6110;DHT22;3085;49.444;11.054;2022-09-14T15:21:10;20.10;99.90
6110;DHT22;3085;49.444;11.054;2022-09-14T15:23:37;19.80;99.90
6110;DHT22;3085;49.444;11.054;2022-09-14T15:26:05;19.50;99.90
6110;DHT22;3085;49.444;11.054;2022-09-14T15:28:32;19.50;99.90
6110;DHT22;3085;49.444;11.054;2022-09-14T15:31:03;19.40;99.90
6110;DHT22;3085;49.444;11.054;2022-09-14T15:33:30;19.40;99.90
6110;DHT22;3085;49.444;11.054;2022-09-14T15:35:58;19.40;99.90
6110;DHT22;3085;49.444;11.054;2022-09-14T15:38:25;19.50;99.90
6110;DHT22;3085;49.444;11.054;2022-09-14T15:40:52;19.50;99.90
6110;DHT22;3085;49.444;11.054;2022-09-14T15:43:20;19.50;99.90
6110;DHT22;3085;49.444;11.054;2022-09-14T15:45:47;19.40;99.90
6110;DHT22;3085;49.444;11.054;2022-09-14T15:48:16;19.30;99.90
6110;DHT22;3085;49.444;11.054;2022-09-14T15:50:45;19.30;99.90
6110;DHT22;3085;49.444;11.054;2022-09-14T15:53:14;19.30;99.90
6110;DHT22;3085;49.444;11.054;2022-09-14T15:55:42;19.40;99.90
6110;DHT22;3085;49.444;11.054;2022-09-14T15:58:10;19.20;99.90
6110;DHT22;3085;49.444;11.054;2022-09-14T16:00:42;19.20;99.90
6110;DHT22;3085;49.444;11.054;2022-09-14T16:03:09;19.30;99.90
6110;DHT22;3085;49.444;11.054;2022-09-14T16:05:36;19.30;99.90
6110;DHT22;3085;49.444;11.054;2022-09-14T16:08:04;19.30;99.90
6110;DHT22;3085;49.444;11.054;2022-09-14T16:10:31;19.30;99.90
6110;DHT22;3085;49.444;11.054;2022-09-14T16:12:58;19.40;99.90
6110;DHT22;3085;49.444;11.054;2022-09-14T16:15:25;19.40;99.90
6110;DHT22;3085;49.444;11.054;2022-09-14T16:17:53;19.40;99.90
6110;DHT22;3085;49.444;11.054;2022-09-14T16:20:20;19.30;99.90